sensor_id;sensor_type;location;lat;lon;timestamp;pressure;altitude;pressure_sealevel;temperature;humidity
44079;BME280;29744;49.078;12.878;2023-08-31T00:04:56;95782.75;;;19.16;44.87
44079;BME280;29744;49.078;12.878;2023-08-31T00:09:56;95783.53;;;19.16;44.35
44079;BME280;29744;49.078;12.878;2023-08-31T00:14:57;95785.47;;;19.16;44.70
44079;BME280;29744;49.078;12.878;2023-08-31T00:19:58;95784.69;;;19.15;44.73
44079;BME280;29744;49.078;12.878;2023-08-31T00:24:58;95779.63;;;19.14;44.67
44079;BME280;29744;49.078;12.878;2023-08-31T00:29:58;95789.34;;;19.15;44.74
44079;BME280;29744;49.078;12.878;2023-08-31T00:34:59;95790.50;;;19.14;44.74
44079;BME280;29744;49.078;12.878;2023-08-31T00:39:59;95798.66;;;19.14;44.47
44079;BME280;29744;49.078;12.878;2023-08-31T00:45:00;95794.78;;;19.15;44.58
44079;BME280;29744;49.078;12.878;2023-08-31T00:50:00;95799.44;;;19.14;44.58
44079;BME280;29744;49.078;12.878;2023-08-31T00:55:02;95804.84;;;19.14;44.74
44079;BME280;29744;49.078;12.878;2023-08-31T01:00:05;95812.22;;;19.14;44.63
44079;BME280;29744;49.078;12.878;2023-08-31T01:05:39;95823.47;;;19.12;44.55
44079;BME280;29744;49.078;12.878;2023-08-31T01:11:10;95822.28;;;19.10;44.74
44079;BME280;29744;49.078;12.878;2023-08-31T01:16:13;95822.69;;;19.12;44.68
44079;BME280;29744;49.078;12.878;2023-08-31T01:21:27;95821.13;;;19.11;44.79
44079;BME280;29744;49.078;12.878;2023-08-31T01:26:30;95817.25;;;19.12;44.74
44079;BME280;29744;49.078;12.878;2023-08-31T01:31:30;95819.19;;;19.11;44.69
44079;BME280;29744;49.078;12.878;2023-08-31T01:36:35;95815.31;;;19.12;44.57
44079;BME280;29744;49.078;12.878;2023-08-31T01:41:40;95820.75;;;19.12;44.42
44079;BME280;29744;49.078;12.878;2023-08-31T01:46:41;95811.81;;;19.12;44.34
44079;BME280;29744;49.078;12.878;2023-08-31T01:51:41;95822.69;;;19.12;44.47
44079;BME280;29744;49.078;12.878;2023-08-31T01:56:41;95811.03;;;19.11;44.53
44079;BME280;29744;49.078;12.878;2023-08-31T02:01:42;95811.03;;;19.11;44.95
44079;BME280;29744;49.078;12.878;2023-08-31T02:06:42;95819.56;;;19.10;44.54
44079;BME280;29744;49.078;12.878;2023-08-31T02:11:42;95823.41;;;19.09;44.33
44079;BME280;29744;49.078;12.878;2023-08-31T02:16:43;95822.28;;;19.10;44.62
44079;BME280;29744;49.078;12.878;2023-08-31T02:21:43;95835.84;;;19.10;44.33
44079;BME280;29744;49.078;12.878;2023-08-31T02:26:43;95833.16;;;19.10;44.70
44079;BME280;29744;49.078;12.878;2023-08-31T02:31:44;95839.72;;;19.09;44.72
44079;BME280;29744;49.078;12.878;2023-08-31T02:36:45;95840.50;;;19.09;44.39
44079;BME280;29744;49.078;12.878;2023-08-31T02:41:45;95841.66;;;19.08;44.67
44079;BME280;29744;49.078;12.878;2023-08-31T02:46:46;95844.38;;;19.08;44.76
44079;BME280;29744;49.078;12.878;2023-08-31T02:51:46;95844.38;;;19.08;44.68
44079;BME280;29744;49.078;12.878;2023-08-31T02:56:47;95852.53;;;19.08;44.75
44079;BME280;29744;49.078;12.878;2023-08-31T03:01:48;95866.13;;;19.08;44.64
44079;BME280;29744;49.078;12.878;2023-08-31T03:06:48;95856.41;;;19.07;44.47
44079;BME280;29744;49.078;12.878;2023-08-31T03:11:49;95855.63;;;19.07;44.71
44079;BME280;29744;49.078;12.878;2023-08-31T03:16:49;95861.06;;;19.07;44.99
44079;BME280;29744;49.078;12.878;2023-08-31T03:21:49;95859.13;;;19.07;44.68
44079;BME280;29744;49.078;12.878;2023-08-31T03:26:50;95863.00;;;19.06;44.66
44079;BME280;29744;49.078;12.878;2023-08-31T03:31:50;95858.69;;;19.05;44.90
44079;BME280;29744;49.078;12.878;2023-08-31T03:36:50;95857.56;;;19.06;44.64
44079;BME280;29744;49.078;12.878;2023-08-31T03:41:50;95870.34;;;19.06;44.92
44079;BME280;29744;49.078;12.878;2023-08-31T03:46:51;95883.94;;;19.06;44.45
44079;BME280;29744;49.078;12.878;2023-08-31T03:51:51;95880.44;;;19.05;44.73
44079;BME280;29744;49.078;12.878;2023-08-31T03:56:53;95868.78;;;19.05;44.86
44079;BME280;29744;49.078;12.878;2023-08-31T04:01:54;95859.84;;;19.04;44.66
44079;BME280;29744;49.078;12.878;2023-08-31T04:06:54;95865.28;;;19.04;44.77
44079;BME280;29744;49.078;12.878;2023-08-31T04:11:54;95868.00;;;19.04;44.73
44079;BME280;29744;49.078;12.878;2023-08-31T04:16:55;95889.75;;;19.04;44.87
44079;BME280;29744;49.078;12.878;2023-08-31T04:21:55;95898.69;;;19.05;44.63
44079;BME280;29744;49.078;12.878;2023-08-31T04:26:56;95904.47;;;19.03;44.66
44079;BME280;29744;49.078;12.878;2023-08-31T04:31:56;95915.00;;;19.05;44.68
44079;BME280;29744;49.078;12.878;2023-08-31T04:36:56;95924.28;;;19.04;44.91
44079;BME280;29744;49.078;12.878;2023-08-31T04:41:57;95923.50;;;19.03;44.68
44079;BME280;29744;49.078;12.878;2023-08-31T04:46:57;95939.03;;;19.03;44.64
44079;BME280;29744;49.078;12.878;2023-08-31T04:51:57;95942.53;;;19.03;44.72
44079;BME280;29744;49.078;12.878;2023-08-31T04:56:57;95954.56;;;19.02;44.33
44079;BME280;29744;49.078;12.878;2023-08-31T05:01:58;95946.41;;;19.02;44.29
44079;BME280;29744;49.078;12.878;2023-08-31T05:06:58;95951.38;;;19.00;44.91
44079;BME280;29744;49.078;12.878;2023-08-31T05:11:58;95959.97;;;19.02;44.74
44079;BME280;29744;49.078;12.878;2023-08-31T05:16:59;95965.41;;;19.02;44.78
44079;BME280;29744;49.078;12.878;2023-08-31T05:22:00;95970.84;;;19.02;44.55
44079;BME280;29744;49.078;12.878;2023-08-31T05:27:00;95980.16;;;19.01;44.66
44079;BME280;29744;49.078;12.878;2023-08-31T05:32:00;95991.81;;;19.02;44.68
44079;BME280;29744;49.078;12.878;2023-08-31T05:37:00;95988.31;;;19.01;44.27
44079;BME280;29744;49.078;12.878;2023-08-31T05:42:01;95983.66;;;19.02;44.17
44079;BME280;29744;49.078;12.878;2023-08-31T05:47:01;95991.03;;;19.01;44.69
44079;BME280;29744;49.078;12.878;2023-08-31T05:52:02;96004.59;;;19.01;44.78
44079;BME280;29744;49.078;12.878;2023-08-31T05:57:02;96007.31;;;19.01;44.56
44079;BME280;29744;49.078;12.878;2023-08-31T06:02:04;96020.56;;;19.03;44.48
44079;BME280;29744;49.078;12.878;2023-08-31T06:07:04;96021.34;;;19.03;44.80
44079;BME280;29744;49.078;12.878;2023-08-31T06:12:05;96015.13;;;19.03;44.69
44079;BME280;29744;49.078;12.878;2023-08-31T06:17:06;96013.19;;;19.03;44.53
44079;BME280;29744;49.078;12.878;2023-08-31T06:22:08;96021.41;;;19.07;44.64
44079;BME280;29744;49.078;12.878;2023-08-31T06:27:09;96029.56;;;19.07;44.27
44079;BME280;29744;49.078;12.878;2023-08-31T06:32:10;96042.34;;;19.06;44.59
44079;BME280;29744;49.078;12.878;2023-08-31T06:37:10;96042.34;;;19.06;44.27
44079;BME280;29744;49.078;12.878;2023-08-31T06:42:10;96046.22;;;19.05;44.43
44079;BME280;29744;49.078;12.878;2023-08-31T06:47:10;96047.78;;;19.06;44.33
44079;BME280;29744;49.078;12.878;2023-08-31T06:52:11;96056.31;;;19.05;44.59
44079;BME280;29744;49.078;12.878;2023-08-31T06:57:11;96059.81;;;19.05;44.71
44079;BME280;29744;49.078;12.878;2023-08-31T07:02:11;96064.09;;;19.06;44.56
44079;BME280;29744;49.078;12.878;2023-08-31T07:07:12;96069.53;;;19.06;44.54
44079;BME280;29744;49.078;12.878;2023-08-31T07:12:15;96081.97;;;19.07;44.46
44079;BME280;29744;49.078;12.878;2023-08-31T07:17:18;96076.13;;;19.05;44.86
44079;BME280;29744;49.078;12.878;2023-08-31T07:22:19;96087.78;;;19.06;44.80
44079;BME280;29744;49.078;12.878;2023-08-31T07:27:20;96079.63;;;19.06;44.85
44079;BME280;29744;49.078;12.878;2023-08-31T07:32:20;96089.34;;;19.07;44.54
44079;BME280;29744;49.078;12.878;2023-08-31T07:37:20;96096.72;;;19.06;44.38
44079;BME280;29744;49.078;12.878;2023-08-31T07:42:21;96102.56;;;19.08;44.58
44079;BME280;29744;49.078;12.878;2023-08-31T07:47:21;96101.41;;;19.09;44.19
44079;BME280;29744;49.078;12.878;2023-08-31T07:52:21;96103.78;;;19.11;44.61
44079;BME280;29744;49.078;12.878;2023-08-31T07:57:22;96108.06;;;19.12;44.82
44079;BME280;29744;49.078;12.878;2023-08-31T08:02:23;96107.28;;;19.11;44.49
44079;BME280;29744;49.078;12.878;2023-08-31T08:07:23;96098.72;;;19.09;44.45
44079;BME280;29744;49.078;12.878;2023-08-31T08:12:24;96101.41;;;19.09;44.42
44079;BME280;29744;49.078;12.878;2023-08-31T08:17:25;96127.03;;;19.08;44.72
44079;BME280;29744;49.078;12.878;2023-08-31T08:22:25;96139.03;;;19.07;44.55
44079;BME280;29744;49.078;12.878;2023-08-31T08:27:26;96147.19;;;19.07;44.20
44079;BME280;29744;49.078;12.878;2023-08-31T08:32:27;96153.44;;;19.08;44.63
44079;BME280;29744;49.078;12.878;2023-08-31T08:37:27;96165.44;;;19.07;44.37
44079;BME280;29744;49.078;12.878;2023-08-31T08:42:30;96159.66;;;19.08;44.43
44079;BME280;29744;49.078;12.878;2023-08-31T08:47:34;96158.06;;;19.07;44.46
44079;BME280;29744;49.078;12.878;2023-08-31T08:52:34;96173.59;;;19.07;44.89
44079;BME280;29744;49.078;12.878;2023-08-31T08:57:35;96176.31;;;19.07;44.75
44079;BME280;29744;49.078;12.878;2023-08-31T09:02:35;96168.16;;;19.07;44.47
44079;BME280;29744;49.078;12.878;2023-08-31T09:07:36;96167.38;;;19.06;44.82
44079;BME280;29744;49.078;12.878;2023-08-31T09:12:36;96170.09;;;19.06;45.03
44079;BME280;29744;49.078;12.878;2023-08-31T09:17:41;96166.59;;;19.06;44.38
44079;BME280;29744;49.078;12.878;2023-08-31T09:22:44;96161.94;;;19.06;44.95
44079;BME280;29744;49.078;12.878;2023-08-31T09:27:45;96170.88;;;19.07;44.50
44079;BME280;29744;49.078;12.878;2023-08-31T09:32:51;96166.59;;;19.06;44.58
44079;BME280;29744;49.078;12.878;2023-08-31T09:37:55;96178.78;;;18.96;44.79
44079;BME280;29744;49.078;12.878;2023-08-31T09:42:58;96188.69;;;19.04;44.79
44079;BME280;29744;49.078;12.878;2023-08-31T09:48:03;96201.13;;;19.05;44.75
44079;BME280;29744;49.078;12.878;2023-08-31T09:53:04;96197.28;;;19.06;44.67
44079;BME280;29744;49.078;12.878;2023-08-31T09:58:06;96198.06;;;19.07;44.41
44079;BME280;29744;49.078;12.878;2023-08-31T10:03:07;96189.13;;;19.06;44.49
44079;BME280;29744;49.078;12.878;2023-08-31T10:08:09;96189.91;;;19.07;44.65
44079;BME280;29744;49.078;12.878;2023-08-31T10:13:10;96188.75;;;19.08;44.71
44079;BME280;29744;49.078;12.878;2023-08-31T10:18:11;96199.63;;;19.08;44.72
44079;BME280;29744;49.078;12.878;2023-08-31T10:23:11;96186.03;;;19.08;44.59
44079;BME280;29744;49.078;12.878;2023-08-31T10:28:23;96188.75;;;19.08;44.72
44079;BME280;29744;49.078;12.878;2023-08-31T10:33:25;96199.28;;;19.09;44.65
44079;BME280;29744;49.078;12.878;2023-08-31T10:38:30;96200.84;;;19.10;44.74
44079;BME280;29744;49.078;12.878;2023-08-31T10:48:51;96201.97;;;19.09;44.97
44079;BME280;29744;49.078;12.878;2023-08-31T10:53:53;96194.63;;;19.10;44.99
44079;BME280;29744;49.078;12.878;2023-08-31T10:59:03;96201.63;;;19.11;44.81
44079;BME280;29744;49.078;12.878;2023-08-31T11:04:09;96198.47;;;19.09;44.62
44079;BME280;29744;49.078;12.878;2023-08-31T11:09:21;96190.31;;;19.09;44.44
44079;BME280;29744;49.078;12.878;2023-08-31T11:14:21;96202.78;;;19.10;44.94
44079;BME280;29744;49.078;12.878;2023-08-31T11:19:21;96200.84;;;19.10;44.76
44079;BME280;29744;49.078;12.878;2023-08-31T11:24:22;96205.50;;;19.10;44.90
44079;BME280;29744;49.078;12.878;2023-08-31T11:29:23;96208.22;;;19.10;44.65
44079;BME280;29744;49.078;12.878;2023-08-31T11:34:23;96211.72;;;19.10;44.92
44079;BME280;29744;49.078;12.878;2023-08-31T11:39:23;96201.97;;;19.09;44.72
44079;BME280;29744;49.078;12.878;2023-08-31T11:44:24;96210.13;;;19.09;44.64
44079;BME280;29744;49.078;12.878;2023-08-31T11:49:26;96198.13;;;19.10;44.92
44079;BME280;29744;49.078;12.878;2023-08-31T11:54:27;96197.75;;;19.12;45.05
44079;BME280;29744;49.078;12.878;2023-08-31T11:59:27;96196.97;;;19.11;44.75
44079;BME280;29744;49.078;12.878;2023-08-31T12:04:28;96202.06;;;19.13;44.63
44079;BME280;29744;49.078;12.878;2023-08-31T12:09:28;96206.69;;;19.12;44.83
44079;BME280;29744;49.078;12.878;2023-08-31T12:14:28;96206.69;;;19.12;44.44
44079;BME280;29744;49.078;12.878;2023-08-31T12:19:29;96208.28;;;19.13;44.63
44079;BME280;29744;49.078;12.878;2023-08-31T12:24:37;96211.00;;;19.13;44.73
44079;BME280;29744;49.078;12.878;2023-08-31T12:29:38;96221.88;;;19.13;44.81
44079;BME280;29744;49.078;12.878;2023-08-31T12:34:39;96221.88;;;19.13;45.04
44079;BME280;29744;49.078;12.878;2023-08-31T12:39:39;96216.44;;;19.13;44.65
44079;BME280;29744;49.078;12.878;2023-08-31T12:44:42;96221.50;;;19.15;44.20
44079;BME280;29744;49.078;12.878;2023-08-31T12:49:42;96210.28;;;19.16;44.29
44079;BME280;29744;49.078;12.878;2023-08-31T12:54:42;96217.66;;;19.16;44.97
44079;BME280;29744;49.078;12.878;2023-08-31T12:59:43;96223.09;;;19.16;44.32
44079;BME280;29744;49.078;12.878;2023-08-31T13:04:43;96213.78;;;19.17;44.86
44079;BME280;29744;49.078;12.878;2023-08-31T13:09:43;96214.94;;;19.16;44.20
44079;BME280;29744;49.078;12.878;2023-08-31T13:14:44;96214.94;;;19.16;44.62
44079;BME280;29744;49.078;12.878;2023-08-31T13:19:44;96218.44;;;19.16;44.80
44079;BME280;29744;49.078;12.878;2023-08-31T13:24:45;96221.16;;;19.16;44.52
44079;BME280;29744;49.078;12.878;2023-08-31T13:29:46;96212.22;;;19.16;44.41
44079;BME280;29744;49.078;12.878;2023-08-31T13:34:46;96223.09;;;19.16;44.66
44079;BME280;29744;49.078;12.878;2023-08-31T13:39:50;96219.56;;;19.15;44.55
44079;BME280;29744;49.078;12.878;2023-08-31T13:44:52;96210.28;;;19.16;44.38
44079;BME280;29744;49.078;12.878;2023-08-31T13:49:52;96213.34;;;19.15;43.87
44079;BME280;29744;49.078;12.878;2023-08-31T13:54:52;96213.34;;;19.15;44.14
44079;BME280;29744;49.078;12.878;2023-08-31T13:59:52;96216.44;;;19.13;43.89
44079;BME280;29744;49.078;12.878;2023-08-31T14:04:53;96206.69;;;19.12;43.94
44079;BME280;29744;49.078;12.878;2023-08-31T14:09:54;96211.00;;;19.13;44.03
44079;BME280;29744;49.078;12.878;2023-08-31T14:14:54;96209.41;;;19.12;43.79
44079;BME280;29744;49.078;12.878;2023-08-31T14:19:55;96209.41;;;19.12;43.79
44079;BME280;29744;49.078;12.878;2023-08-31T14:24:55;96218.72;;;19.11;43.69
44079;BME280;29744;49.078;12.878;2023-08-31T14:29:57;96212.13;;;19.12;43.65
44079;BME280;29744;49.078;12.878;2023-08-31T14:34:58;96203.56;;;19.10;43.40
44079;BME280;29744;49.078;12.878;2023-08-31T14:39:58;96203.56;;;19.10;43.83
44079;BME280;29744;49.078;12.878;2023-08-31T14:44:58;96207.06;;;19.11;43.93
44079;BME280;29744;49.078;12.878;2023-08-31T14:49:58;96205.50;;;19.10;43.98
44079;BME280;29744;49.078;12.878;2023-08-31T14:54:59;96201.97;;;19.09;44.23
44079;BME280;29744;49.078;12.878;2023-08-31T15:00:00;96204.69;;;19.09;43.85
44079;BME280;29744;49.078;12.878;2023-08-31T15:05:00;96204.69;;;19.09;43.98
44079;BME280;29744;49.078;12.878;2023-08-31T15:10:00;96212.06;;;19.09;44.29
44079;BME280;29744;49.078;12.878;2023-08-31T15:15:01;96207.00;;;19.07;43.97
44079;BME280;29744;49.078;12.878;2023-08-31T15:20:03;96224.88;;;19.08;43.77
44079;BME280;29744;49.078;12.878;2023-08-31T15:25:04;96221.00;;;19.09;44.09
44079;BME280;29744;49.078;12.878;2023-08-31T15:30:05;96234.59;;;19.09;43.94
44079;BME280;29744;49.078;12.878;2023-08-31T15:35:08;96230.31;;;19.08;44.32
44079;BME280;29744;49.078;12.878;2023-08-31T15:40:08;96230.31;;;19.08;43.80
44079;BME280;29744;49.078;12.878;2023-08-31T15:45:09;96240.03;;;19.09;44.11
44079;BME280;29744;49.078;12.878;2023-08-31T15:50:10;96230.31;;;19.08;44.16
44079;BME280;29744;49.078;12.878;2023-08-31T15:55:10;96222.94;;;19.09;44.17
44079;BME280;29744;49.078;12.878;2023-08-31T16:00:11;96224.09;;;19.08;43.88
44079;BME280;29744;49.078;12.878;2023-08-31T16:05:11;96218.66;;;19.08;44.24
44079;BME280;29744;49.078;12.878;2023-08-31T16:10:11;96228.72;;;19.07;43.94
44079;BME280;29744;49.078;12.878;2023-08-31T16:15:12;96230.31;;;19.08;44.08
44079;BME280;29744;49.078;12.878;2023-08-31T16:20:12;96234.16;;;19.07;44.10
44079;BME280;29744;49.078;12.878;2023-08-31T16:25:12;96236.09;;;19.07;44.07
44079;BME280;29744;49.078;12.878;2023-08-31T16:30:16;96242.31;;;19.07;44.14
44079;BME280;29744;49.078;12.878;2023-08-31T16:35:16;96236.09;;;19.07;43.80
44079;BME280;29744;49.078;12.878;2023-08-31T16:40:16;96235.31;;;19.06;44.09
44079;BME280;29744;49.078;12.878;2023-08-31T16:45:17;96232.59;;;19.06;44.12
44079;BME280;29744;49.078;12.878;2023-08-31T16:50:37;96230.59;;;19.03;43.90
44079;BME280;29744;49.078;12.878;2023-08-31T16:55:38;96236.47;;;19.05;44.02
44079;BME280;29744;49.078;12.878;2023-08-31T17:00:44;96237.78;;;18.95;44.24
44079;BME280;29744;49.078;12.878;2023-08-31T17:05:44;96238.75;;;19.03;44.02
44079;BME280;29744;49.078;12.878;2023-08-31T17:10:45;96239.53;;;19.04;44.22
44079;BME280;29744;49.078;12.878;2023-08-31T17:15:46;96232.53;;;19.03;43.97
44079;BME280;29744;49.078;12.878;2023-08-31T17:20:46;96240.69;;;19.03;44.28
44079;BME280;29744;49.078;12.878;2023-08-31T17:25:46;96243.41;;;19.03;44.16
44079;BME280;29744;49.078;12.878;2023-08-31T17:30:47;96244.53;;;19.02;43.92
44079;BME280;29744;49.078;12.878;2023-08-31T17:35:47;96252.69;;;19.02;43.68
44079;BME280;29744;49.078;12.878;2023-08-31T17:40:47;96251.91;;;19.01;43.91
44079;BME280;29744;49.078;12.878;2023-08-31T17:45:49;96252.69;;;19.02;43.79
44079;BME280;29744;49.078;12.878;2023-08-31T17:50:49;96245.69;;;19.01;43.79
44079;BME280;29744;49.078;12.878;2023-08-31T17:55:49;96253.03;;;19.00;43.97
44079;BME280;29744;49.078;12.878;2023-08-31T18:00:50;96253.84;;;19.01;43.95
44079;BME280;29744;49.078;12.878;2023-08-31T18:05:51;96255.75;;;19.00;44.22
44079;BME280;29744;49.078;12.878;2023-08-31T18:10:52;96269.31;;;19.00;43.96
44079;BME280;29744;49.078;12.878;2023-08-31T18:15:55;96271.63;;;18.98;44.11
44079;BME280;29744;49.078;12.878;2023-08-31T18:20:56;96278.63;;;18.99;43.88
44079;BME280;29744;49.078;12.878;2023-08-31T18:25:57;96286.00;;;18.99;43.76
44079;BME280;29744;49.078;12.878;2023-08-31T18:30:58;96289.50;;;18.99;44.06
44079;BME280;29744;49.078;12.878;2023-08-31T18:36:03;96295.28;;;18.98;44.09
44079;BME280;29744;49.078;12.878;2023-08-31T18:41:03;96296.44;;;18.96;43.64
44079;BME280;29744;49.078;12.878;2023-08-31T18:46:04;96307.28;;;18.96;43.77
44079;BME280;29744;49.078;12.878;2023-08-31T18:51:04;96308.44;;;18.95;43.69
44079;BME280;29744;49.078;12.878;2023-08-31T18:56:05;96304.94;;;18.95;43.92
44079;BME280;29744;49.078;12.878;2023-08-31T19:01:05;96313.53;;;18.97;43.96
44079;BME280;29744;49.078;12.878;2023-08-31T19:06:05;96322.03;;;18.95;43.65
44079;BME280;29744;49.078;12.878;2023-08-31T19:11:08;96322.81;;;18.96;43.92
44079;BME280;29744;49.078;12.878;2023-08-31T19:16:09;96333.69;;;18.96;43.93
44079;BME280;29744;49.078;12.878;2023-08-31T19:21:10;96335.63;;;18.95;43.82
44079;BME280;29744;49.078;12.878;2023-08-31T19:26:10;96334.03;;;18.94;43.79
44079;BME280;29744;49.078;12.878;2023-08-31T19:31:11;96338.69;;;18.94;44.01
44079;BME280;29744;49.078;12.878;2023-08-31T19:36:11;96340.25;;;18.95;44.21
44079;BME280;29744;49.078;12.878;2023-08-31T19:41:11;96339.47;;;18.94;43.97
44079;BME280;29744;49.078;12.878;2023-08-31T19:46:12;96355.00;;;18.94;43.99
44079;BME280;29744;49.078;12.878;2023-08-31T19:51:12;96355.00;;;18.94;44.25
44079;BME280;29744;49.078;12.878;2023-08-31T19:56:13;96357.72;;;18.94;44.06
44079;BME280;29744;49.078;12.878;2023-08-31T20:01:13;96365.06;;;18.93;43.74
44079;BME280;29744;49.078;12.878;2023-08-31T20:06:13;96371.28;;;18.94;44.05
44079;BME280;29744;49.078;12.878;2023-08-31T20:11:14;96356.91;;;18.93;44.35
44079;BME280;29744;49.078;12.878;2023-08-31T20:16:15;96365.06;;;18.93;43.81
44079;BME280;29744;49.078;12.878;2023-08-31T20:21:15;96357.28;;;18.92;43.87
44079;BME280;29744;49.078;12.878;2023-08-31T20:26:16;96366.22;;;18.92;44.34
44079;BME280;29744;49.078;12.878;2023-08-31T20:31:16;96366.22;;;18.92;44.06
44079;BME280;29744;49.078;12.878;2023-08-31T20:36:16;96368.16;;;18.92;44.06
44079;BME280;29744;49.078;12.878;2023-08-31T20:41:17;96376.28;;;18.92;44.27
44079;BME280;29744;49.078;12.878;2023-08-31T20:46:17;96374.72;;;18.91;44.48
44079;BME280;29744;49.078;12.878;2023-08-31T20:51:18;96372.00;;;18.91;44.03
44079;BME280;29744;49.078;12.878;2023-08-31T20:56:19;96378.22;;;18.91;44.13
44079;BME280;29744;49.078;12.878;2023-08-31T21:01:20;96382.09;;;18.90;44.01
44079;BME280;29744;49.078;12.878;2023-08-31T21:06:25;96382.88;;;18.91;44.22
44079;BME280;29744;49.078;12.878;2023-08-31T21:11:25;96392.94;;;18.90;44.27
44079;BME280;29744;49.078;12.878;2023-08-31T21:16:26;96390.25;;;18.90;44.08
44079;BME280;29744;49.078;12.878;2023-08-31T21:21:27;96383.22;;;18.89;43.92
44079;BME280;29744;49.078;12.878;2023-08-31T21:26:30;96373.16;;;18.90;44.16
44079;BME280;29744;49.078;12.878;2023-08-31T21:31:33;96378.59;;;18.90;43.77
44079;BME280;29744;49.078;12.878;2023-08-31T21:36:34;96382.09;;;18.90;44.48
44079;BME280;29744;49.078;12.878;2023-08-31T21:41:34;96372.34;;;18.89;44.10
44079;BME280;29744;49.078;12.878;2023-08-31T21:46:34;96382.44;;;18.89;44.07
44079;BME280;29744;49.078;12.878;2023-08-31T21:51:35;96382.78;;;18.87;44.14
44079;BME280;29744;49.078;12.878;2023-08-31T21:56:35;96380.50;;;18.89;44.13
44079;BME280;29744;49.078;12.878;2023-08-31T22:01:35;96383.59;;;18.88;44.21
44079;BME280;29744;49.078;12.878;2023-08-31T22:06:36;96382.78;;;18.87;43.92
44079;BME280;29744;49.078;12.878;2023-08-31T22:11:36;96397.16;;;18.88;44.20
44079;BME280;29744;49.078;12.878;2023-08-31T22:16:37;96401.03;;;18.87;44.13
44079;BME280;29744;49.078;12.878;2023-08-31T22:21:37;96409.97;;;18.87;43.88
44079;BME280;29744;49.078;12.878;2023-08-31T22:26:38;96409.16;;;18.87;44.22
44079;BME280;29744;49.078;12.878;2023-08-31T22:31:39;96417.31;;;18.87;44.34
44079;BME280;29744;49.078;12.878;2023-08-31T22:36:39;96424.69;;;18.86;44.19
44079;BME280;29744;49.078;12.878;2023-08-31T22:41:39;96431.69;;;18.87;44.27
44079;BME280;29744;49.078;12.878;2023-08-31T22:46:42;96430.91;;;18.87;44.11
44079;BME280;29744;49.078;12.878;2023-08-31T22:51:43;96429.34;;;18.86;44.16
44079;BME280;29744;49.078;12.878;2023-08-31T22:56:43;96420.03;;;18.87;44.37
44079;BME280;29744;49.078;12.878;2023-08-31T23:01:43;96415.75;;;18.86;44.36
44079;BME280;29744;49.078;12.878;2023-08-31T23:06:46;96418.47;;;18.86;44.24
44079;BME280;29744;49.078;12.878;2023-08-31T23:11:46;96404.88;;;18.86;43.97
44079;BME280;29744;49.078;12.878;2023-08-31T23:16:48;96414.16;;;18.85;43.90
44079;BME280;29744;49.078;12.878;2023-08-31T23:21:49;96416.88;;;18.85;44.24
44079;BME280;29744;49.078;12.878;2023-08-31T23:26:49;96413.03;;;18.86;44.04
44079;BME280;29744;49.078;12.878;2023-08-31T23:31:49;96401.28;;;18.82;44.18
44079;BME280;29744;49.078;12.878;2023-08-31T23:36:50;96394.38;;;18.84;44.53
44079;BME280;29744;49.078;12.878;2023-08-31T23:41:51;96381.13;;;18.83;44.47
44079;BME280;29744;49.078;12.878;2023-08-31T23:46:51;96384.63;;;18.83;43.95
44079;BME280;29744;49.078;12.878;2023-08-31T23:51:51;96395.50;;;18.83;44.17
44079;BME280;29744;49.078;12.878;2023-08-31T23:56:52;96402.88;;;18.83;44.49
